createdAt,value
2019-03-28T00:02:05.262Z,8.57
2019-03-28T00:04:33.651Z,8.73
2019-03-28T00:07:02.133Z,10.90
2019-03-28T00:09:30.542Z,18.87
2019-03-28T00:11:59.030Z,14.97
2019-03-28T00:14:27.502Z,9.77
2019-03-28T00:16:55.887Z,9.70
2019-03-28T00:19:24.278Z,8.83
2019-03-28T00:21:52.783Z,11.83
2019-03-28T00:24:25.256Z,9.40
2019-03-28T00:26:53.730Z,9.53
2019-03-28T00:29:22.135Z,11.57
2019-03-28T00:31:50.617Z,9.60
2019-03-28T00:34:19.076Z,9.57
2019-03-28T00:36:47.459Z,10.87
2019-03-28T00:39:15.870Z,10.77
2019-03-28T00:41:44.257Z,9.53
2019-03-28T00:44:12.767Z,10.03
2019-03-28T00:46:41.245Z,10.73
2019-03-28T00:49:09.657Z,10.27
2019-03-28T00:51:38.063Z,11.37
2019-03-28T00:54:06.476Z,11.40
2019-03-28T00:56:46.436Z,13.23
2019-03-28T00:59:05.206Z,13.00
2019-03-28T01:01:33.641Z,11.77
2019-03-28T01:04:02.320Z,10.20
2019-03-28T01:06:30.903Z,11.53
2019-03-28T01:08:59.373Z,9.13
2019-03-28T01:11:27.867Z,8.57
2019-03-28T01:13:56.316Z,9.87
2019-03-28T01:16:24.793Z,8.53
2019-03-28T01:18:53.193Z,9.57
2019-03-28T01:21:21.604Z,11.40
2019-03-28T01:23:49.998Z,10.83
2019-03-28T01:26:18.514Z,11.67
2019-03-28T01:28:46.924Z,9.53
2019-03-28T01:31:15.330Z,10.60
2019-03-28T01:33:43.807Z,13.70
2019-03-28T01:36:12.220Z,11.13
2019-03-28T01:38:40.615Z,10.40
2019-03-28T01:41:09.021Z,11.27
2019-03-28T01:43:37.410Z,13.50
2019-03-28T01:46:05.876Z,12.33
2019-03-28T01:48:34.264Z,10.73
2019-03-28T01:51:02.704Z,12.93
2019-03-28T01:53:31.091Z,10.80
2019-03-28T01:55:59.488Z,11.00
2019-03-28T01:58:27.989Z,15.03
2019-03-28T02:00:56.403Z,11.70
2019-03-28T02:03:24.814Z,16.47
2019-03-28T02:05:53.261Z,14.03
2019-03-28T02:08:24.653Z,13.40
2019-03-28T02:10:51.809Z,11.87
2019-03-28T02:13:20.246Z,13.37
2019-03-28T02:15:48.719Z,14.83
2019-03-28T02:18:17.186Z,13.67
2019-03-28T02:20:45.652Z,14.43
2019-03-28T02:23:14.077Z,15.97
2019-03-28T02:25:43.386Z,13.30
2019-03-28T02:28:12.053Z,11.70
2019-03-28T02:30:40.462Z,13.90
2019-03-28T02:33:08.885Z,12.40
2019-03-28T02:35:37.351Z,11.70
2019-03-28T02:38:05.788Z,12.83
2019-03-28T02:40:34.229Z,12.37
2019-03-28T02:43:02.742Z,11.63
2019-03-28T02:45:31.200Z,10.70
2019-03-28T02:47:59.628Z,14.33
2019-03-28T02:50:28.046Z,12.27
2019-03-28T02:52:56.465Z,16.27
2019-03-28T02:55:24.895Z,11.57
2019-03-28T02:57:53.304Z,13.97
2019-03-28T03:00:21.799Z,11.50
2019-03-28T03:02:50.267Z,16.10
2019-03-28T03:05:18.680Z,15.33
2019-03-28T03:07:47.102Z,15.73
2019-03-28T03:10:15.847Z,16.67
2019-03-28T03:12:44.246Z,15.90
2019-03-28T03:15:12.997Z,12.70
2019-03-28T03:17:41.907Z,10.50
2019-03-28T03:20:10.715Z,14.20
2019-03-28T03:22:39.200Z,11.47
2019-03-28T03:25:08.554Z,11.93
2019-03-28T03:27:37.353Z,11.53
2019-03-28T03:30:07.744Z,10.10
2019-03-28T03:32:36.423Z,12.70
2019-03-28T03:35:05.674Z,12.20
2019-03-28T03:37:34.073Z,12.67
2019-03-28T03:40:02.570Z,10.93
2019-03-28T03:42:30.947Z,11.47
2019-03-28T03:44:59.472Z,12.43
2019-03-28T03:47:27.875Z,14.83
2019-03-28T03:49:56.513Z,15.17
2019-03-28T03:52:25.169Z,15.40
2019-03-28T03:54:53.669Z,12.33
2019-03-28T03:57:22.114Z,12.90
2019-03-28T03:59:50.547Z,16.53
2019-03-28T04:02:18.952Z,16.67
2019-03-28T04:04:47.729Z,17.03
2019-03-28T04:07:16.315Z,17.07
2019-03-28T04:09:44.724Z,17.07
2019-03-28T04:12:13.142Z,12.90
2019-03-28T04:14:41.540Z,15.20
2019-03-28T04:17:10.409Z,12.37
2019-03-28T04:19:38.916Z,14.63
2019-03-28T04:22:07.365Z,11.87
2019-03-28T04:24:35.831Z,12.67
2019-03-28T04:28:34.819Z,13.93
2019-03-28T04:31:03.361Z,11.97
2019-03-28T04:33:31.754Z,14.03
2019-03-28T04:36:00.178Z,13.30
2019-03-28T04:38:28.573Z,12.53
2019-03-28T04:40:56.989Z,11.60
2019-03-28T04:43:25.673Z,14.40
2019-03-28T04:45:54.206Z,18.92
2019-03-28T04:48:22.632Z,20.00
2019-03-28T04:50:51.039Z,15.70
2019-03-28T04:53:19.452Z,13.70
2019-03-28T04:55:47.860Z,18.37
2019-03-28T04:58:16.305Z,16.30
2019-03-28T05:00:44.727Z,13.37
2019-03-28T05:03:13.288Z,18.27
2019-03-28T05:05:41.772Z,13.97
2019-03-28T05:08:10.188Z,14.27
2019-03-28T05:10:38.657Z,16.10
2019-03-28T05:13:07.039Z,16.17
2019-03-28T05:15:35.443Z,12.80
2019-03-28T05:18:03.895Z,13.60
2019-03-28T05:20:32.315Z,15.03
2019-03-28T05:23:00.749Z,11.90
2019-03-28T05:25:29.178Z,12.57
2019-03-28T05:27:57.601Z,14.10
2019-03-28T05:30:26.072Z,11.43
2019-03-28T05:32:54.514Z,13.13
2019-03-28T05:35:22.985Z,15.00
2019-03-28T05:37:51.404Z,14.20
2019-03-28T05:40:22.692Z,13.53
2019-03-28T05:42:50.142Z,14.27
2019-03-28T05:45:18.602Z,15.07
2019-03-28T05:47:47.047Z,13.77
2019-03-28T05:50:15.456Z,13.03
2019-03-28T05:52:43.886Z,14.43
2019-03-28T05:55:12.367Z,15.50
2019-03-28T05:57:40.768Z,14.43
2019-03-28T06:00:10.054Z,13.73
2019-03-28T06:02:38.467Z,14.47
2019-03-28T06:05:07.532Z,15.23
2019-03-28T06:07:36.486Z,12.57
2019-03-28T06:10:08.554Z,11.47
2019-03-28T06:12:36.956Z,13.07
2019-03-28T06:15:08.895Z,12.50
2019-03-28T06:17:37.359Z,15.20
2019-03-28T06:20:07.889Z,14.60
2019-03-28T06:22:36.468Z,13.70
2019-03-28T06:25:06.114Z,13.37
2019-03-28T06:27:34.691Z,14.40
2019-03-28T06:30:03.378Z,18.97
2019-03-28T06:32:42.250Z,15.90
2019-03-28T06:35:01.985Z,19.60
2019-03-28T06:37:30.387Z,18.53
2019-03-28T06:39:58.804Z,17.47
2019-03-28T06:42:27.195Z,16.83
2019-03-28T06:44:55.808Z,19.50
2019-03-28T06:47:24.285Z,18.37
2019-03-28T06:49:52.761Z,19.60
2019-03-28T06:52:21.321Z,14.40
2019-03-28T06:54:49.707Z,12.27
2019-03-28T06:57:19.035Z,19.70
2019-03-28T06:59:47.515Z,22.37
2019-03-28T07:02:15.933Z,22.43
2019-03-28T07:04:44.338Z,21.33
2019-03-28T07:07:12.755Z,18.83
2019-03-28T07:09:41.147Z,16.97
2019-03-28T07:12:09.592Z,22.47
2019-03-28T07:14:37.990Z,19.17
2019-03-28T07:17:06.406Z,48.30
2019-03-28T07:19:34.820Z,25.73
2019-03-28T07:22:03.266Z,23.83
2019-03-28T07:24:31.649Z,21.80
2019-03-28T07:27:00.069Z,16.03
2019-03-28T07:29:28.472Z,15.90
2019-03-28T07:31:56.912Z,12.33
2019-03-28T07:34:25.317Z,12.00
2019-03-28T07:36:53.748Z,10.97
2019-03-28T07:39:22.150Z,11.40
2019-03-28T07:41:50.598Z,16.27
2019-03-28T07:44:19.023Z,18.83
2019-03-28T07:46:47.852Z,17.20
2019-03-28T07:49:16.275Z,17.20
2019-03-28T07:51:44.705Z,16.93
2019-03-28T07:54:13.426Z,19.77
2019-03-28T07:56:41.955Z,17.83
2019-03-28T07:59:10.563Z,19.15
2019-03-28T08:01:38.981Z,20.17
2019-03-28T08:04:07.468Z,17.60
2019-03-28T08:06:48.808Z,16.23
2019-03-28T08:09:08.754Z,12.78
2019-03-28T08:11:37.492Z,10.20
2019-03-28T08:14:05.991Z,11.95
2019-03-28T08:16:34.469Z,10.38
2019-03-28T08:19:02.890Z,11.03
2019-03-28T08:21:31.455Z,11.55
2019-03-28T08:23:59.883Z,10.72
2019-03-28T08:26:30.209Z,13.00
2019-03-28T08:28:58.616Z,10.88
2019-03-28T08:31:27.257Z,11.48
2019-03-28T08:33:55.712Z,13.70
2019-03-28T08:36:24.589Z,11.28
2019-03-28T08:38:53.070Z,11.00
2019-03-28T08:41:21.479Z,11.08
2019-03-28T08:43:49.889Z,12.18
2019-03-28T08:46:18.301Z,14.33
2019-03-28T08:48:46.722Z,13.75
2019-03-28T08:51:15.297Z,10.85
2019-03-28T08:53:43.760Z,13.48
2019-03-28T08:56:12.171Z,11.78
2019-03-28T08:58:40.613Z,14.58
2019-03-28T09:01:09.107Z,12.18
2019-03-28T09:03:37.514Z,15.25
2019-03-28T09:06:06.132Z,19.07
2019-03-28T09:08:34.545Z,12.80
2019-03-28T09:11:03.121Z,15.25
2019-03-28T09:13:31.654Z,15.63
2019-03-28T09:16:00.125Z,12.07
2019-03-28T09:18:28.538Z,11.38
2019-03-28T09:20:57.030Z,16.12
2019-03-28T09:23:25.451Z,15.08
2019-03-28T09:25:53.930Z,15.00
2019-03-28T09:28:22.285Z,15.08
2019-03-28T09:30:50.836Z,12.60
2019-03-28T09:33:19.407Z,12.80
2019-03-28T09:35:47.869Z,11.38
2019-03-28T09:38:16.400Z,11.28
2019-03-28T09:40:44.997Z,11.85
2019-03-28T09:43:13.408Z,11.28
2019-03-28T09:45:41.904Z,11.18
2019-03-28T09:48:11.911Z,11.95
2019-03-28T09:50:40.673Z,9.70
2019-03-28T09:53:09.174Z,10.93
2019-03-28T09:55:37.597Z,10.30
2019-03-28T09:58:06.085Z,12.37
2019-03-28T10:00:34.874Z,10.23
2019-03-28T10:03:03.264Z,9.95
2019-03-28T10:05:31.646Z,10.28
2019-03-28T10:08:00.106Z,11.70
2019-03-28T10:10:28.633Z,8.60
2019-03-28T10:12:57.063Z,7.08
2019-03-28T10:15:25.540Z,6.33
2019-03-28T10:17:54.786Z,7.53
2019-03-28T10:20:23.647Z,6.42
2019-03-28T10:22:52.086Z,6.83
2019-03-28T10:25:20.546Z,5.72
2019-03-28T10:27:48.990Z,6.78
2019-03-28T10:30:19.447Z,7.97
2019-03-28T10:32:47.853Z,6.75
2019-03-28T10:35:24.943Z,6.65
2019-03-28T10:37:53.377Z,11.95
2019-03-28T10:40:21.779Z,12.45
2019-03-28T10:42:50.205Z,6.65
2019-03-28T10:45:18.617Z,6.30
2019-03-28T10:47:47.146Z,6.37
2019-03-28T10:50:15.607Z,6.08
2019-03-28T10:52:44.030Z,6.70
2019-03-28T10:55:12.597Z,7.20
2019-03-28T10:57:41.039Z,6.22
2019-03-28T11:00:23.172Z,8.60
2019-03-28T11:02:40.101Z,8.55
2019-03-28T11:05:08.991Z,9.25
2019-03-28T11:07:37.405Z,6.10
2019-03-28T11:10:07.293Z,5.30
2019-03-28T11:12:36.022Z,5.22
2019-03-28T11:15:05.302Z,6.37
2019-03-28T11:17:33.782Z,8.08
2019-03-28T11:20:02.195Z,6.50
2019-03-28T11:22:30.681Z,7.35
2019-03-28T11:24:59.200Z,5.10
2019-03-28T11:27:27.708Z,8.00
2019-03-28T11:29:56.204Z,5.50
2019-03-28T11:32:24.579Z,5.28
2019-03-28T11:34:53.009Z,4.90
2019-03-28T11:37:26.259Z,4.85
2019-03-28T11:39:51.577Z,5.00
2019-03-28T11:42:20.054Z,5.10
2019-03-28T11:44:48.619Z,5.40
2019-03-28T11:47:17.020Z,6.05
2019-03-28T11:49:45.439Z,6.58
2019-03-28T11:52:13.848Z,6.08
2019-03-28T11:54:42.270Z,5.83
2019-03-28T11:57:10.821Z,6.05
2019-03-28T11:59:39.193Z,5.60
2019-03-28T12:02:19.192Z,6.25
2019-03-28T12:04:38.812Z,6.75
2019-03-28T12:07:07.373Z,7.00
2019-03-28T12:09:35.781Z,4.92
2019-03-28T12:12:04.254Z,5.37
2019-03-28T12:14:32.652Z,4.97
2019-03-28T12:17:01.047Z,4.50
2019-03-28T12:19:29.504Z,5.10
2019-03-28T12:21:59.465Z,3.65
2019-03-28T12:24:27.870Z,4.08
2019-03-28T12:26:56.342Z,4.20
2019-03-28T12:29:24.750Z,4.35
2019-03-28T12:31:53.194Z,2.60
2019-03-28T12:34:21.591Z,3.40
2019-03-28T12:36:50.010Z,2.55
2019-03-28T12:39:18.598Z,2.85
2019-03-28T12:41:47.058Z,4.80
2019-03-28T12:44:15.535Z,2.95
2019-03-28T12:46:43.943Z,3.33
2019-03-28T12:49:12.368Z,3.22
2019-03-28T12:51:40.806Z,3.45
2019-03-28T12:54:09.252Z,3.27
2019-03-28T12:56:38.571Z,5.53
2019-03-28T12:59:07.043Z,2.90
2019-03-28T13:01:35.515Z,2.77
2019-03-28T13:04:03.920Z,2.42
2019-03-28T13:06:33.476Z,2.22
2019-03-28T13:09:02.019Z,2.75
2019-03-28T13:11:30.480Z,2.80
2019-03-28T13:13:58.882Z,3.60
2019-03-28T13:16:27.328Z,4.60
2019-03-28T13:18:55.754Z,3.65
2019-03-28T13:21:24.192Z,3.77
2019-03-28T13:23:52.658Z,8.10
2019-03-28T13:26:21.053Z,5.87
2019-03-28T13:28:49.535Z,5.80
2019-03-28T13:31:17.941Z,4.30
2019-03-28T13:33:46.351Z,5.30
2019-03-28T13:36:14.738Z,3.92
2019-03-28T13:38:43.155Z,4.03
2019-03-28T13:41:11.558Z,3.87
2019-03-28T13:43:39.986Z,4.45
2019-03-28T13:46:08.401Z,5.28
2019-03-28T13:48:36.800Z,3.92
2019-03-28T13:51:05.361Z,4.37
2019-03-28T13:53:39.759Z,4.62
2019-03-28T13:56:03.927Z,5.28
2019-03-28T13:58:32.358Z,2.62
2019-03-28T14:01:00.761Z,3.52
2019-03-28T14:03:29.209Z,3.83
2019-03-28T14:05:57.684Z,3.77
2019-03-28T14:08:26.080Z,3.83
2019-03-28T14:10:54.486Z,3.80
2019-03-28T14:13:22.973Z,2.45
2019-03-28T14:15:51.444Z,3.52
2019-03-28T14:18:19.893Z,2.55
2019-03-28T14:20:48.303Z,2.53
2019-03-28T14:23:16.717Z,2.98
2019-03-28T14:25:45.209Z,2.33
2019-03-28T14:28:13.639Z,3.50
2019-03-28T14:30:42.061Z,4.27
2019-03-28T14:33:13.018Z,3.62
2019-03-28T14:35:40.608Z,2.90
2019-03-28T14:38:09.077Z,2.43
2019-03-28T14:40:37.549Z,5.83
2019-03-28T14:43:07.046Z,2.30
2019-03-28T14:45:36.117Z,1.97
2019-03-28T14:48:06.882Z,1.77
2019-03-28T14:50:36.930Z,2.77
2019-03-28T14:53:05.781Z,2.50
2019-03-28T14:55:35.240Z,2.60
2019-03-28T14:58:05.221Z,1.77
2019-03-28T15:00:36.711Z,2.57
2019-03-28T15:03:05.169Z,1.60
2019-03-28T15:05:33.523Z,4.03
2019-03-28T15:08:01.994Z,2.70
2019-03-28T15:10:30.414Z,2.47
2019-03-28T15:12:58.818Z,9.90
2019-03-28T15:15:27.401Z,4.43
2019-03-28T15:17:55.809Z,4.10
2019-03-28T15:20:27.325Z,2.97
2019-03-28T15:22:54.310Z,3.30
2019-03-28T15:25:22.728Z,2.47
2019-03-28T15:27:51.156Z,3.40
2019-03-28T15:30:19.688Z,2.00
2019-03-28T15:32:48.104Z,2.60
2019-03-28T15:35:16.518Z,3.17
2019-03-28T15:37:45.021Z,2.83
2019-03-28T15:40:14.272Z,2.83
2019-03-28T15:42:42.725Z,3.40
2019-03-28T15:45:11.370Z,7.30
2019-03-28T15:47:39.802Z,3.23
2019-03-28T15:50:08.555Z,2.60
2019-03-28T15:52:36.962Z,1.63
2019-03-28T15:55:06.211Z,1.50
2019-03-28T15:57:34.704Z,2.60
2019-03-28T16:00:03.250Z,2.37
2019-03-28T16:02:31.681Z,1.43
2019-03-28T16:05:00.159Z,2.07
2019-03-28T16:07:29.543Z,2.13
2019-03-28T16:09:58.107Z,2.30
2019-03-28T16:12:26.535Z,2.30
2019-03-28T16:14:55.723Z,3.67
2019-03-28T16:17:24.343Z,2.50
2019-03-28T16:19:54.262Z,3.03
2019-03-28T16:22:22.653Z,5.60
2019-03-28T16:24:51.085Z,7.87
2019-03-28T16:27:19.614Z,13.80
2019-03-28T16:29:48.042Z,10.50
2019-03-28T16:32:16.460Z,7.27
2019-03-28T16:34:44.870Z,12.97
2019-03-28T16:37:13.280Z,10.93
2019-03-28T16:39:41.791Z,7.07
2019-03-28T16:42:10.319Z,8.37
2019-03-28T16:44:38.736Z,7.73
2019-03-28T16:47:07.124Z,6.27
2019-03-28T16:49:35.540Z,5.37
2019-03-28T16:52:04.237Z,4.20
2019-03-28T16:54:32.727Z,3.47
2019-03-28T16:57:02.220Z,3.53
2019-03-28T16:59:30.636Z,3.03
2019-03-28T17:01:59.106Z,5.33
2019-03-28T17:04:27.634Z,2.23
2019-03-28T17:06:56.102Z,2.20
2019-03-28T17:09:25.548Z,2.03
2019-03-28T17:11:53.951Z,2.00
2019-03-28T17:14:22.457Z,2.70
2019-03-28T17:16:50.902Z,3.80
2019-03-28T17:19:19.622Z,3.67
2019-03-28T17:21:48.050Z,2.87
2019-03-28T17:24:16.472Z,3.17
2019-03-28T17:26:44.901Z,2.93
2019-03-28T17:29:13.467Z,3.13
2019-03-28T17:31:41.885Z,2.53
2019-03-28T17:34:10.277Z,5.90
2019-03-28T17:36:38.770Z,28.97
2019-03-28T17:39:07.315Z,28.70
2019-03-28T17:41:35.744Z,28.83
2019-03-28T17:44:04.295Z,28.13
2019-03-28T17:46:32.712Z,23.23
2019-03-28T17:49:01.123Z,13.00
2019-03-28T17:51:29.523Z,14.67
2019-03-28T17:53:57.935Z,14.00
2019-03-28T17:56:26.339Z,13.33
2019-03-28T17:58:54.734Z,8.70
2019-03-28T18:01:23.233Z,8.20
2019-03-28T18:03:51.640Z,5.40
2019-03-28T18:06:20.072Z,3.43
2019-03-28T18:08:48.481Z,7.03
2019-03-28T18:11:17.001Z,7.93
2019-03-28T18:13:45.405Z,15.07
2019-03-28T18:16:13.883Z,21.47
2019-03-28T18:18:42.302Z,71.30
2019-03-28T18:21:10.822Z,51.00
2019-03-28T18:23:39.275Z,47.83
2019-03-28T18:26:07.761Z,42.73
2019-03-28T18:28:36.238Z,46.73
2019-03-28T18:31:04.708Z,48.10
2019-03-28T18:33:33.188Z,41.77
2019-03-28T18:36:01.678Z,37.43
2019-03-28T18:38:32.539Z,39.47
2019-03-28T18:41:00.928Z,40.97
2019-03-28T18:43:29.464Z,34.33
2019-03-28T18:45:57.896Z,22.23
2019-03-28T18:48:31.607Z,22.63
2019-03-28T18:50:56.540Z,25.20
2019-03-28T18:53:25.059Z,30.93
2019-03-28T18:55:53.470Z,29.40
2019-03-28T18:58:21.939Z,21.13
2019-03-28T19:00:50.461Z,30.07
2019-03-28T19:03:19.020Z,29.47
2019-03-28T19:05:48.690Z,32.03
2019-03-28T19:08:17.468Z,27.20
2019-03-28T19:10:46.099Z,24.97
2019-03-28T19:13:14.627Z,24.00
2019-03-28T19:15:43.140Z,21.97
2019-03-28T19:18:11.635Z,16.63
2019-03-28T19:20:40.142Z,10.87
2019-03-28T19:23:08.578Z,10.63
2019-03-28T19:25:37.177Z,26.00
2019-03-28T19:28:07.718Z,23.37
2019-03-28T19:30:36.150Z,16.43
2019-03-28T19:33:06.860Z,10.73
2019-03-28T19:35:36.503Z,7.93
2019-03-28T19:38:05.076Z,7.67
2019-03-28T19:40:33.570Z,6.80
2019-03-28T19:43:02.097Z,6.43
2019-03-28T19:45:37.176Z,6.90
2019-03-28T19:48:06.461Z,8.97
2019-03-28T19:50:35.033Z,13.50
2019-03-28T19:53:03.654Z,17.27
2019-03-28T19:55:32.244Z,18.47
2019-03-28T19:58:00.732Z,12.70
2019-03-28T20:00:29.135Z,8.30
2019-03-28T20:03:00.216Z,10.40
2019-03-28T20:05:27.814Z,11.03
2019-03-28T20:07:56.209Z,13.57
2019-03-28T20:10:24.766Z,8.30
2019-03-28T20:12:53.190Z,10.27
2019-03-28T20:15:21.787Z,12.50
2019-03-28T20:17:50.424Z,9.30
2019-03-28T20:20:18.968Z,10.83
2019-03-28T20:22:47.448Z,12.17
2019-03-28T20:25:15.982Z,11.17
2019-03-28T20:27:44.386Z,11.47
2019-03-28T20:30:13.043Z,9.87
2019-03-28T20:32:41.530Z,11.43
2019-03-28T20:35:10.838Z,19.50
2019-03-28T20:37:39.397Z,18.93
2019-03-28T20:40:08.436Z,18.03
2019-03-28T20:42:36.868Z,16.87
2019-03-28T20:45:08.673Z,21.37
2019-03-28T20:47:37.248Z,18.80
2019-03-28T20:50:08.798Z,18.37
2019-03-28T20:52:37.337Z,16.83
2019-03-28T20:55:07.602Z,15.50
2019-03-28T20:57:36.233Z,17.43
2019-03-28T21:03:34.477Z,10.83
2019-03-28T21:06:14.553Z,8.83
2019-03-28T21:08:33.229Z,8.03
2019-03-28T21:11:01.682Z,12.63
2019-03-28T21:13:30.192Z,17.07
2019-03-28T21:15:58.602Z,9.77
2019-03-28T21:18:27.153Z,8.80
2019-03-28T21:20:55.576Z,7.73
2019-03-28T21:23:24.009Z,9.17
2019-03-28T21:25:52.486Z,11.00
2019-03-28T21:28:20.929Z,19.47
2019-03-28T21:30:49.638Z,22.20
2019-03-28T21:33:18.334Z,25.90
2019-03-28T21:35:46.861Z,22.23
2019-03-28T21:38:15.304Z,21.30
2019-03-28T21:40:43.989Z,18.60
2019-03-28T21:43:12.417Z,20.13
2019-03-28T21:45:40.884Z,18.83
2019-03-28T21:48:09.256Z,18.43
2019-03-28T21:50:37.663Z,19.33
2019-03-28T21:53:06.912Z,20.50
2019-03-28T21:55:35.393Z,18.03
2019-03-28T21:58:04.902Z,16.63
2019-03-28T22:00:33.366Z,14.40
2019-03-28T22:03:01.785Z,12.90
2019-03-28T22:05:30.902Z,14.17
2019-03-28T22:07:59.511Z,13.73
2019-03-28T22:10:27.940Z,12.10
2019-03-28T22:12:56.410Z,12.20
2019-03-28T22:15:24.832Z,11.33
2019-03-28T22:17:53.298Z,11.43
2019-03-28T22:20:21.806Z,11.00
2019-03-28T22:22:50.286Z,13.03
2019-03-28T22:25:18.723Z,12.40
2019-03-28T22:27:47.656Z,13.60
2019-03-28T22:30:16.693Z,13.17
2019-03-28T22:32:45.069Z,11.17
2019-03-28T22:35:13.642Z,11.90
2019-03-28T22:37:42.057Z,10.63
2019-03-28T22:40:12.086Z,9.67
2019-03-28T22:42:40.960Z,9.50
2019-03-28T22:45:10.303Z,10.37
2019-03-28T22:47:38.701Z,8.30
2019-03-28T22:50:07.634Z,8.20
2019-03-28T22:52:36.024Z,7.77
2019-03-28T22:55:07.525Z,8.40
2019-03-28T22:57:36.087Z,9.70
2019-03-28T23:00:07.611Z,14.63
2019-03-28T23:02:36.023Z,12.90
2019-03-28T23:05:05.668Z,11.73
2019-03-28T23:07:34.181Z,10.97
2019-03-28T23:10:02.666Z,11.33
2019-03-28T23:12:31.129Z,9.37
2019-03-28T23:14:59.522Z,10.00
2019-03-28T23:17:28.040Z,10.20
2019-03-28T23:19:56.456Z,10.83
2019-03-28T23:22:24.877Z,9.47
2019-03-28T23:24:53.265Z,9.53
2019-03-28T23:27:21.657Z,9.33
2019-03-28T23:29:50.087Z,9.67
2019-03-28T23:32:18.483Z,9.00
2019-03-28T23:34:46.920Z,9.97
2019-03-28T23:37:24.623Z,11.40
2019-03-28T23:39:45.427Z,9.13
2019-03-28T23:42:13.965Z,10.13
2019-03-28T23:44:44.044Z,9.40
2019-03-28T23:47:12.468Z,10.40
2019-03-28T23:49:40.957Z,8.77
2019-03-28T23:52:09.361Z,10.13
2019-03-28T23:54:38.003Z,7.30
2019-03-28T23:57:06.429Z,10.30
2019-03-28T23:59:34.864Z,8.77
